Nearby METAR Reports

 

KHFD - Hartford/Brainar, Connecticut, USA
Distance from station: NW 13mi, 20km
Updated: Wed, 24-Apr-2019 7:53am EDT
Mostly cloudy
Mostly cloudy
 Wind from calm
Wind: Calm
Temperature: 55°F , 13°C
Dew Point: 52°F , 11°C
Humidity: 88%
Barometer: 29.69 inHg , 1005.4 hPa
Clouds: Mostly cloudy
Visibility: 10 miles , 16 km
Cloud details: Partly cloudy 2700 ft
Mostly cloudy 3800 ft
2019/04/24 11:53 KHFD 241153Z 00000KT 10SM SCT027 BKN038 13/11 A2969 RMK AO2 SLP053 70005 T01280106 10128 20106 53011
KSNC - Chester, Connecticut, USA
Distance from station: S 15mi, 23km
Updated: Wed, 24-Apr-2019 8:35am EDT
Few Clouds
Few Clouds
 Wind from N
Wind: N 13 mph , 20 km/h, Gust: 18 mph , 30 km/h
Temperature: 64°F , 18°C
Dew Point: 54°F , 12°C
Humidity: 68%
Barometer: 29.69 inHg , 1005.4 hPa
Clouds: Few Clouds
Visibility: 10 miles , 16 km
Cloud details: Few Clouds 2100 ft
Few Clouds 10000 ft
2019/04/24 12:35 KSNC 241235Z AUTO 35011G16KT 10SM FEW021 FEW100 18/12 A2969 RMK AO2
 
KMMK - Meriden, Connecticut, USA
Distance from station: WSW 18mi, 30km
Updated: Wed, 24-Apr-2019 7:53am EDT
Clear
Clear
 Wind from NW
Wind: NW 7 mph , 11 km/h
Temperature: 57°F , 14°C
Dew Point: 54°F , 12°C
Humidity: 88%
Barometer: 29.69 inHg , 1005.4 hPa
Clouds: Clear
Visibility: 10 miles , 16 km
2019/04/24 11:53 KMMK 241153Z AUTO 32006KT 10SM CLR 14/12 A2969 RMK AO2 SLP052 70015 T01440117 10144 20094 53009
KIJD - Willimantic, Connecticut, USA
Distance from station: NE 19mi, 31km
Updated: Wed, 24-Apr-2019 8:38am EDT
Mostly cloudy
Mostly cloudy
 Wind from calm
Wind: Calm
Temperature: 54°F , 12°C
Dew Point: 52°F , 11°C
Humidity: 94%
Barometer: 29.70 inHg , 1005.8 hPa
Clouds: Mostly cloudy
Visibility: 7 miles , 11 km
Cloud details: Partly cloudy 500 ft
Mostly cloudy 1400 ft
Mostly cloudy 3700 ft
2019/04/24 12:38 KIJD 241238Z AUTO 00000KT 7SM SCT005 BKN014 BKN037 12/11 A2970 RMK AO2 T01220106
 
KBDL - Windsor Locks, Connecticut, USA
Distance from station: NNW 25mi, 41km
Updated: Wed, 24-Apr-2019 7:51am EDT
Mostly cloudy
Mostly cloudy
 Wind from NW
Wind: NW 17 mph , 28 km/h, Gust: 25 mph , 41 km/h
Temperature: 57°F , 14°C
Dew Point: 46°F , 8°C
Humidity: 67%
Barometer: 29.70 inHg , 1005.8 hPa
Clouds: Mostly cloudy
Visibility: 10 miles , 16 km
Cloud details: Few Clouds 1000 ft
Few Clouds 3000 ft
Mostly cloudy 4500 ft
2019/04/24 11:51 KBDL 241151Z 31015G22KT 10SM FEW010 FEW030 BKN045 14/08 A2970 RMK AO2 SLP055 60000 70004 T01440083 10144 20111 53015
KGON - Groton/New Londo, Connecticut, USA
Distance from station: SE 29mi, 47km
Updated: Wed, 24-Apr-2019 7:56am EDT
Clear
Clear
 Wind from WSW
Wind: WSW 7 mph , 11 km/h
Temperature: 57°F , 14°C
Dew Point: 52°F , 11°C
Humidity: 82%
Barometer: 29.67 inHg , 1004.7 hPa
Clouds: Clear
Visibility: 10 miles , 16 km
2019/04/24 11:56 KGON 241156Z 25006KT 10SM CLR 14/11 A2967 RMK AO2 SLP047 60000 T01390106 10139 20089 53001
 
KHVN - New Haven/Tweed, Connecticut, USA
Distance from station: SW 30mi, 48km
Updated: Wed, 24-Apr-2019 7:53am EDT
Clear
Clear
 Wind from calm
Wind: Calm
Temperature: 57°F , 14°C
Dew Point: 52°F , 11°C
Humidity: 82%
Barometer: 29.68 inHg , 1005.1 hPa
Clouds: Clear
Visibility: 10 miles , 16 km
2019/04/24 11:53 KHVN 241153Z 00000KT 10SM CLR 14/11 A2968 RMK AO2 SLP050 T01440111 10144 20106 53007
KOXC - Oxford/Waterbury, Connecticut, USA
Distance from station: WSW 34mi, 55km
Updated: Wed, 24-Apr-2019 7:51am EDT
Few Clouds
Few Clouds
 Wind from W
Wind: W 9 mph , 15 km/h, Gust: 16 mph , 26 km/h
Temperature: 59°F , 15°C
Dew Point: 48°F , 9°C
Humidity: 68%
Barometer: 29.71 inHg , 1006.1 hPa
Clouds: Few Clouds
Visibility: 10 miles , 16 km
Cloud details: Few Clouds 2000 ft
2019/04/24 11:51 KOXC 241151Z 28008G14KT 240V330 10SM FEW020 15/09 A2971 RMK AO2 SLP069 70004 T01500089 10150 20106 53012
 
KWST - Westerly, Rhode Island, USA
Distance from station: ESE 40mi, 64km
Updated: Wed, 24-Apr-2019 7:53am EDT
Clear
Clear
 Wind from SW
Wind: SW 3 mph , 6 km/h
Temperature: 57°F , 14°C
Dew Point: 54°F , 12°C
Humidity: 88%
Barometer: 29.68 inHg , 1005.1 hPa
Clouds: Clear
Visibility: 10 miles , 16 km
2019/04/24 11:53 KWST 241153Z AUTO 23003KT 10SM CLR 14/12 A2968 RMK AO2 SLP048 60000 T01390117 10139 20100 56003
KBAF - Westfield, Massachusetts, USA
Distance from station: NNW 41mi, 66km
Updated: Wed, 24-Apr-2019 7:53am EDT
Clear
Clear
 Wind from NW
Wind: NW 14 mph , 22 km/h
Temperature: 54°F , 12°C
Dew Point: 45°F , 7°C
Humidity: 72%
Barometer: 29.70 inHg , 1005.8 hPa
Clouds: Clear
Visibility: 10 miles , 16 km
2019/04/24 11:53 KBAF 241153Z 31012KT 10SM CLR 12/07 A2970 RMK AO2 SLP057 60000 70005 T01220067 10128 20100 53018
 
KCEF - Chicopee/Westove, Massachusetts, USA
Distance from station: N 42mi, 67km
Updated: Wed, 24-Apr-2019 7:56am EDT
Partly cloudy
Partly cloudy
 Wind from WNW
Wind: WNW 12 mph , 19 km/h
Temperature: 55°F , 13°C
Dew Point: 48°F , 9°C
Humidity: 77%
Barometer: 29.68 inHg , 1005.1 hPa
Clouds: Partly cloudy
Visibility: 10 miles , 16 km
Cloud details: Few Clouds 2000 ft
Partly cloudy 4500 ft
2019/04/24 11:56 KCEF 241156Z 29010KT 10SM FEW020 SCT045 13/09 A2968 RMK AO2A SLP056 60001 70006 T01260091 10126 20106 52013
KBDR - Bridgeport, Connecticut, USA
Distance from station: SW 44mi, 72km
Updated: Wed, 24-Apr-2019 7:52am EDT
Clear
Clear
 Wind from WSW
Wind: WSW 6 mph , 9 km/h
Temperature: 59°F , 15°C
Dew Point: 52°F , 11°C
Humidity: 77%
Barometer: 29.69 inHg , 1005.4 hPa
Clouds: Clear
Visibility: 10 miles , 16 km
2019/04/24 11:52 KBDR 241152Z 24005KT 10SM CLR 15/11 A2969 RMK AO2 SLP054 T01500111 10150 20106 53010
 
KHTO - East Hampton, New York, USA
Distance from station: SSE 46mi, 74km
Updated: Wed, 24-Apr-2019 8:35am EDT
Clear
Clear
 Wind from WNW
Wind: WNW 9 mph , 15 km/h, Gust: 16 mph , 26 km/h
Temperature: 64°F , 18°C
Dew Point: 54°F , 12°C
Humidity: 68%
Barometer: 29.68 inHg , 1005.1 hPa
Clouds: Clear
Visibility: 10 miles , 16 km
2019/04/24 12:35 KHTO 241235Z AUTO 30008G14KT 10SM CLR 18/12 A2968 RMK AO2 T01810116
KMTP - Montauk, New York, USA
Distance from station: SE 47mi, 76km
Updated: Wed, 24-Apr-2019 7:54am EDT

 Wind from varies
Wind: varies 3 mph , 6 km/h
Temperature: 57°F , 14°C
Dew Point: 52°F , 11°C
Humidity: 82%
Barometer: 29.68 inHg , 1005.1 hPa
2019/04/24 11:54 KMTP 241154Z AUTO VRB03KT 14/11 A2968 RMK AO1 SLP051 60001 70001 T01440106 10144 20111 56002